createdAt,value
2017-09-22T00:02:01.678Z,6.15
2017-09-22T00:04:28.152Z,7.70
2017-09-22T00:06:54.594Z,7.40
2017-09-22T00:09:21.789Z,8.40
2017-09-22T00:11:48.238Z,7.10
2017-09-22T00:14:14.692Z,10.85
2017-09-22T00:16:41.114Z,8.15
2017-09-22T00:19:07.584Z,9.38
2017-09-22T00:21:34.745Z,7.37
2017-09-22T00:24:01.173Z,8.80
2017-09-22T00:26:27.605Z,8.50
2017-09-22T00:28:54.833Z,9.48
2017-09-22T00:31:21.340Z,8.77
2017-09-22T00:33:47.807Z,7.62
2017-09-22T00:36:14.965Z,10.13
2017-09-22T00:38:42.270Z,8.05
2017-09-22T00:41:08.689Z,8.65
2017-09-22T00:43:35.128Z,7.90
2017-09-22T00:46:01.595Z,10.80
2017-09-22T00:48:28.099Z,8.20
2017-09-22T00:50:54.581Z,8.57
2017-09-22T00:53:21.048Z,7.65
2017-09-22T00:55:47.525Z,8.55
2017-09-22T00:58:13.961Z,9.20
2017-09-22T01:00:40.404Z,7.93
2017-09-22T01:03:07.581Z,8.23
2017-09-22T01:05:34.081Z,9.65
2017-09-22T01:08:01.304Z,9.93
2017-09-22T01:10:27.704Z,9.25
2017-09-22T01:12:54.093Z,11.60
2017-09-22T01:15:20.536Z,10.88
2017-09-22T01:17:47.726Z,9.80
2017-09-22T01:20:14.167Z,11.43
2017-09-22T01:22:40.645Z,10.98
2017-09-22T01:25:07.083Z,10.88
2017-09-22T01:27:33.503Z,10.40
2017-09-22T01:29:59.920Z,10.50
2017-09-22T01:32:26.385Z,11.70
2017-09-22T01:34:53.546Z,12.10
2017-09-22T01:37:20.002Z,12.15
2017-09-22T01:39:46.413Z,12.23
2017-09-22T01:42:13.597Z,11.52
2017-09-22T01:44:40.029Z,11.70
2017-09-22T01:47:06.437Z,10.35
2017-09-22T01:49:32.975Z,12.93
2017-09-22T01:51:59.510Z,11.93
2017-09-22T01:54:25.948Z,11.73
2017-09-22T01:56:52.376Z,12.57
2017-09-22T01:59:18.837Z,11.68
2017-09-22T02:01:45.277Z,13.02
2017-09-22T02:04:11.752Z,13.65
2017-09-22T02:06:38.225Z,14.55
2017-09-22T02:09:04.698Z,15.40
2017-09-22T02:11:31.134Z,12.98
2017-09-22T02:13:57.553Z,12.93
2017-09-22T02:16:24.010Z,14.07
2017-09-22T02:18:50.414Z,15.10
2017-09-22T02:21:16.894Z,13.45
2017-09-22T02:23:44.045Z,13.23
2017-09-22T02:26:10.479Z,13.98
2017-09-22T02:28:37.672Z,15.45
2017-09-22T02:31:04.105Z,12.75
2017-09-22T02:33:30.629Z,15.27
2017-09-22T02:35:57.061Z,11.82
2017-09-22T02:38:23.530Z,11.88
2017-09-22T02:40:49.993Z,12.02
2017-09-22T02:43:17.152Z,15.27
2017-09-22T02:45:43.569Z,14.05
2017-09-22T02:48:10.756Z,16.05
2017-09-22T02:50:37.165Z,12.30
2017-09-22T02:53:03.639Z,13.82
2017-09-22T02:55:30.065Z,13.48
2017-09-22T02:57:56.509Z,14.07
2017-09-22T03:00:22.992Z,12.82
2017-09-22T03:02:49.449Z,12.77
2017-09-22T03:05:15.897Z,13.60
2017-09-22T03:07:42.345Z,12.55
2017-09-22T03:10:08.772Z,12.27
2017-09-22T03:12:36.030Z,13.15
2017-09-22T03:15:02.549Z,15.20
2017-09-22T03:17:29.021Z,13.15
2017-09-22T03:19:55.492Z,15.05
2017-09-22T03:22:22.654Z,11.95
2017-09-22T03:24:49.046Z,12.23
2017-09-22T03:27:16.237Z,11.27
2017-09-22T03:29:42.652Z,12.88
2017-09-22T03:32:09.826Z,10.93
2017-09-22T03:34:36.245Z,12.55
2017-09-22T03:37:02.705Z,13.05
2017-09-22T03:39:29.165Z,15.13
2017-09-22T03:41:55.578Z,12.32
2017-09-22T03:44:21.979Z,13.38
2017-09-22T03:46:48.462Z,11.57
2017-09-22T03:49:14.868Z,10.35
2017-09-22T03:51:41.281Z,10.38
2017-09-22T03:54:07.733Z,10.68
2017-09-22T03:56:34.181Z,10.38
2017-09-22T03:59:00.580Z,10.00
2017-09-22T04:01:27.064Z,10.35
2017-09-22T04:03:53.503Z,9.80
2017-09-22T04:06:20.682Z,10.10
2017-09-22T04:08:47.140Z,9.80
2017-09-22T04:11:13.574Z,14.07
2017-09-22T04:13:39.981Z,17.08
2017-09-22T04:16:06.509Z,11.90
2017-09-22T04:18:33.742Z,12.48
2017-09-22T04:21:00.145Z,11.93
2017-09-22T04:23:26.535Z,11.90
2017-09-22T04:25:52.983Z,12.60
2017-09-22T04:28:19.433Z,12.90
2017-09-22T04:30:45.864Z,11.80
2017-09-22T04:33:12.318Z,11.38
2017-09-22T04:35:38.748Z,24.73
2017-09-22T04:38:05.201Z,21.92
2017-09-22T04:40:32.409Z,19.37
2017-09-22T04:42:58.825Z,16.65
2017-09-22T04:45:25.260Z,15.05
2017-09-22T04:47:51.694Z,32.38
2017-09-22T04:50:18.134Z,27.75
2017-09-22T04:52:44.538Z,30.45
2017-09-22T04:55:10.948Z,58.72
2017-09-22T04:57:38.144Z,46.33
2017-09-22T05:00:04.567Z,57.38
2017-09-22T05:02:31.016Z,57.97
2017-09-22T05:04:57.469Z,62.55
2017-09-22T05:07:24.481Z,24.37
2017-09-22T05:09:50.916Z,24.63
2017-09-22T05:12:17.366Z,27.23
2017-09-22T05:14:43.812Z,20.55
2017-09-22T05:17:10.312Z,20.30
2017-09-22T05:19:36.800Z,20.02
2017-09-22T05:22:03.257Z,14.20
2017-09-22T05:24:30.410Z,13.45
2017-09-22T05:26:57.574Z,19.83
2017-09-22T05:29:24.760Z,25.55
2017-09-22T05:31:51.221Z,17.35
2017-09-22T05:34:17.651Z,16.05
2017-09-22T05:36:44.053Z,15.55
2017-09-22T05:39:10.498Z,20.35
2017-09-22T05:41:36.943Z,21.70
2017-09-22T05:44:04.202Z,19.35
2017-09-22T05:46:30.637Z,15.20
2017-09-22T05:48:57.093Z,16.92
2017-09-22T05:51:24.273Z,18.60
2017-09-22T05:53:50.689Z,17.58
2017-09-22T05:56:17.141Z,17.58
2017-09-22T05:58:43.585Z,13.20
2017-09-22T06:01:10.004Z,17.62
2017-09-22T06:03:36.420Z,17.83
2017-09-22T06:06:02.937Z,13.07
2017-09-22T06:08:30.085Z,14.30
2017-09-22T06:10:57.245Z,14.10
2017-09-22T06:13:23.722Z,15.20
2017-09-22T06:15:50.161Z,12.00
2017-09-22T06:18:16.588Z,16.50
2017-09-22T06:20:43.028Z,15.65
2017-09-22T06:23:09.462Z,14.32
2017-09-22T06:25:35.917Z,12.57
2017-09-22T06:28:02.382Z,16.00
2017-09-22T06:30:28.813Z,16.12
2017-09-22T06:32:55.229Z,14.07
2017-09-22T06:35:22.456Z,15.45
2017-09-22T06:37:48.882Z,15.68
2017-09-22T06:40:16.129Z,11.43
2017-09-22T06:42:42.585Z,12.60
2017-09-22T06:45:09.021Z,13.40
2017-09-22T06:47:35.458Z,13.13
2017-09-22T06:50:01.902Z,11.60
2017-09-22T06:52:29.077Z,12.32
2017-09-22T06:54:55.538Z,17.75
2017-09-22T06:57:22.025Z,10.70
2017-09-22T06:59:49.216Z,9.85
2017-09-22T07:02:15.658Z,9.85
2017-09-22T07:04:42.081Z,11.35
2017-09-22T07:07:08.575Z,14.25
2017-09-22T07:09:35.073Z,10.18
2017-09-22T07:12:02.301Z,8.95
2017-09-22T07:14:28.763Z,9.82
2017-09-22T07:16:55.165Z,9.63
2017-09-22T07:19:21.566Z,9.52
2017-09-22T07:21:48.010Z,9.65
2017-09-22T07:24:14.457Z,9.18
2017-09-22T07:26:40.901Z,10.48
2017-09-22T07:29:07.344Z,11.35
2017-09-22T07:31:33.776Z,11.20
2017-09-22T07:34:00.268Z,14.10
2017-09-22T07:36:26.684Z,11.75
2017-09-22T07:38:53.157Z,13.88
2017-09-22T07:41:19.632Z,13.25
2017-09-22T07:43:46.067Z,17.10
2017-09-22T07:46:12.489Z,14.10
2017-09-22T07:48:38.929Z,13.57
2017-09-22T07:51:05.332Z,19.48
2017-09-22T07:53:31.772Z,12.25
2017-09-22T07:55:58.233Z,11.35
2017-09-22T07:58:24.641Z,11.30
2017-09-22T08:00:51.069Z,13.20
2017-09-22T08:03:17.507Z,13.70
2017-09-22T08:05:44.754Z,13.75
2017-09-22T08:08:11.227Z,12.37
2017-09-22T08:10:37.720Z,13.95
2017-09-22T08:13:04.141Z,11.75
2017-09-22T08:15:30.632Z,12.05
2017-09-22T08:17:57.822Z,13.25
2017-09-22T08:20:24.237Z,13.55
2017-09-22T08:22:50.654Z,11.65
2017-09-22T08:25:17.827Z,10.48
2017-09-22T08:27:44.264Z,10.05
2017-09-22T08:30:10.693Z,11.23
2017-09-22T08:32:37.124Z,9.45
2017-09-22T08:35:03.585Z,9.25
2017-09-22T08:37:30.068Z,9.32
2017-09-22T08:39:57.235Z,7.78
2017-09-22T08:42:23.678Z,7.78
2017-09-22T08:44:50.149Z,9.10
2017-09-22T08:47:16.597Z,8.20
2017-09-22T08:49:43.127Z,7.78
2017-09-22T08:52:09.552Z,8.43
2017-09-22T08:54:36.001Z,7.68
2017-09-22T08:57:02.424Z,7.32
2017-09-22T08:59:29.647Z,6.12
2017-09-22T09:01:56.079Z,5.45
2017-09-22T09:04:23.252Z,6.95
2017-09-22T09:06:49.709Z,6.32
2017-09-22T09:09:16.881Z,6.00
2017-09-22T09:11:43.374Z,5.25
2017-09-22T09:14:09.841Z,4.43
2017-09-22T09:16:37.000Z,3.55
2017-09-22T09:19:03.433Z,4.00
2017-09-22T09:21:29.914Z,4.50
2017-09-22T09:23:56.349Z,4.75
2017-09-22T09:26:22.802Z,3.83
2017-09-22T09:28:49.949Z,3.62
2017-09-22T09:31:16.367Z,4.55
2017-09-22T09:33:42.805Z,4.20
2017-09-22T09:36:09.275Z,4.00
2017-09-22T09:38:35.745Z,4.30
2017-09-22T09:41:02.174Z,4.28
2017-09-22T09:43:28.598Z,3.50
2017-09-22T09:45:55.061Z,3.78
2017-09-22T09:48:21.524Z,3.50
2017-09-22T09:50:47.938Z,3.53
2017-09-22T09:53:15.113Z,2.90
2017-09-22T09:55:41.582Z,3.72
2017-09-22T09:58:08.014Z,3.30
2017-09-22T10:00:34.526Z,3.75
2017-09-22T10:03:00.982Z,3.50
2017-09-22T10:05:27.450Z,3.50
2017-09-22T10:07:54.609Z,3.35
2017-09-22T10:10:21.850Z,3.37
2017-09-22T10:12:48.269Z,2.90
2017-09-22T10:15:14.719Z,3.17
2017-09-22T10:17:41.140Z,2.80
2017-09-22T10:20:07.594Z,2.53
2017-09-22T10:22:34.065Z,2.72
2017-09-22T10:25:00.469Z,3.55
2017-09-22T10:27:27.632Z,3.37
2017-09-22T10:29:54.111Z,3.25
2017-09-22T10:32:20.533Z,2.60
2017-09-22T10:34:47.007Z,3.35
2017-09-22T10:37:14.178Z,4.20
2017-09-22T10:39:40.618Z,3.90
2017-09-22T10:42:07.099Z,3.50
2017-09-22T10:44:33.533Z,3.40
2017-09-22T10:47:00.753Z,3.30
2017-09-22T10:49:27.217Z,3.47
2017-09-22T10:51:53.665Z,3.40
2017-09-22T10:54:20.832Z,3.50
2017-09-22T10:56:48.030Z,3.30
2017-09-22T10:59:14.486Z,3.00
2017-09-22T11:01:40.926Z,2.90
2017-09-22T11:04:07.364Z,3.37
2017-09-22T11:06:34.586Z,3.60
2017-09-22T11:09:01.045Z,4.50
2017-09-22T11:11:27.466Z,3.70
2017-09-22T11:13:53.928Z,3.20
2017-09-22T11:16:20.360Z,3.60
2017-09-22T11:18:47.526Z,4.55
2017-09-22T11:21:14.803Z,3.78
2017-09-22T11:23:41.256Z,3.83
2017-09-22T11:26:07.683Z,2.80
2017-09-22T11:28:34.106Z,3.17
2017-09-22T11:31:00.346Z,3.35
2017-09-22T11:33:26.762Z,2.97
2017-09-22T11:35:53.249Z,2.90
2017-09-22T11:38:19.757Z,2.65
2017-09-22T11:40:46.168Z,3.08
2017-09-22T11:43:12.569Z,3.40
2017-09-22T11:45:39.774Z,3.00
2017-09-22T11:48:06.181Z,3.20
2017-09-22T11:50:32.582Z,3.50
2017-09-22T11:52:59.055Z,2.90
2017-09-22T11:55:25.492Z,3.15
2017-09-22T11:57:51.938Z,2.83
2017-09-22T12:00:18.462Z,4.82
2017-09-22T12:02:44.935Z,3.22
2017-09-22T12:05:12.141Z,3.83
2017-09-22T12:07:38.589Z,3.45
2017-09-22T12:10:05.048Z,3.50
2017-09-22T12:12:32.193Z,3.65
2017-09-22T12:14:59.403Z,3.55
2017-09-22T12:17:25.869Z,3.10
2017-09-22T12:19:52.330Z,3.03
2017-09-22T12:22:19.509Z,3.05
2017-09-22T12:24:45.928Z,3.33
2017-09-22T12:27:12.373Z,3.92
2017-09-22T12:29:38.788Z,3.10
2017-09-22T12:32:05.230Z,2.85
2017-09-22T12:34:31.673Z,5.75
2017-09-22T12:36:58.151Z,3.00
2017-09-22T12:39:24.599Z,3.25
2017-09-22T12:41:51.784Z,2.80
2017-09-22T12:44:18.257Z,3.00
2017-09-22T12:46:44.712Z,3.00
2017-09-22T12:49:11.897Z,3.25
2017-09-22T12:51:38.384Z,3.45
2017-09-22T12:54:04.818Z,3.15
2017-09-22T12:56:32.018Z,3.85
2017-09-22T12:58:58.447Z,2.60
2017-09-22T13:01:24.966Z,3.20
2017-09-22T13:03:51.481Z,2.85
2017-09-22T13:06:18.689Z,3.30
2017-09-22T13:08:45.202Z,2.90
2017-09-22T13:11:11.690Z,3.20
2017-09-22T13:13:38.926Z,3.05
2017-09-22T13:16:06.109Z,3.30
2017-09-22T13:18:33.318Z,3.40
2017-09-22T13:20:59.798Z,3.55
2017-09-22T13:23:27.017Z,3.10
2017-09-22T13:25:53.487Z,3.42
2017-09-22T13:28:19.947Z,2.92
2017-09-22T13:30:46.409Z,2.72
2017-09-22T13:33:12.911Z,3.00
2017-09-22T13:35:39.322Z,2.78
2017-09-22T13:38:06.529Z,3.45
2017-09-22T13:40:32.993Z,3.20
2017-09-22T13:42:59.476Z,3.53
2017-09-22T13:45:25.940Z,2.78
2017-09-22T13:47:52.434Z,3.10
2017-09-22T13:50:18.869Z,3.55
2017-09-22T13:52:45.297Z,3.95
2017-09-22T13:55:11.781Z,4.32
2017-09-22T13:57:38.217Z,3.70
2017-09-22T14:00:04.739Z,3.72
2017-09-22T14:02:31.965Z,5.35
2017-09-22T14:04:58.422Z,3.90
2017-09-22T14:07:25.604Z,3.30
2017-09-22T14:09:52.028Z,3.55
2017-09-22T14:12:19.234Z,3.22
2017-09-22T14:14:45.680Z,3.87
2017-09-22T14:17:12.109Z,2.72
2017-09-22T14:19:38.591Z,2.80
2017-09-22T14:22:05.002Z,3.25
2017-09-22T14:24:32.297Z,2.92
2017-09-22T14:26:58.725Z,3.03
2017-09-22T14:29:25.873Z,2.67
2017-09-22T14:31:53.073Z,2.87
2017-09-22T14:34:19.549Z,3.10
2017-09-22T14:36:46.023Z,4.80
2017-09-22T14:39:12.488Z,2.95
2017-09-22T14:41:38.905Z,2.50
2017-09-22T14:44:05.369Z,2.50
2017-09-22T14:46:31.822Z,2.47
2017-09-22T14:48:58.288Z,3.05
2017-09-22T14:51:24.782Z,3.87
2017-09-22T14:53:51.945Z,2.80
2017-09-22T14:56:18.378Z,2.80
2017-09-22T14:58:45.593Z,2.00
2017-09-22T15:01:12.785Z,2.22
2017-09-22T15:03:39.222Z,2.90
2017-09-22T15:06:05.630Z,19.25
2017-09-22T15:08:32.786Z,28.10
2017-09-22T15:10:59.243Z,3.62
2017-09-22T15:13:25.693Z,9.88
2017-09-22T15:15:52.141Z,2.33
2017-09-22T15:18:18.609Z,2.30
2017-09-22T15:20:45.112Z,3.17
2017-09-22T15:23:11.557Z,2.50
2017-09-22T15:25:38.793Z,2.95
2017-09-22T15:28:05.285Z,2.58
2017-09-22T15:30:31.738Z,2.67
2017-09-22T15:32:58.174Z,2.78
2017-09-22T15:35:24.637Z,2.58
2017-09-22T15:37:51.077Z,3.05
2017-09-22T15:40:17.518Z,2.75
2017-09-22T15:42:43.975Z,3.53
2017-09-22T15:45:10.414Z,3.47
2017-09-22T15:47:36.865Z,3.40
2017-09-22T15:50:03.349Z,3.58
2017-09-22T15:52:29.838Z,3.28
2017-09-22T15:54:56.246Z,3.00
2017-09-22T15:57:22.661Z,3.55
2017-09-22T15:59:49.878Z,2.95
2017-09-22T16:02:16.277Z,3.15
2017-09-22T16:04:42.754Z,3.17
2017-09-22T16:07:09.195Z,3.08
2017-09-22T16:09:35.649Z,3.70
2017-09-22T16:12:02.820Z,2.75
2017-09-22T16:14:29.237Z,7.32
2017-09-22T16:16:55.744Z,55.78
2017-09-22T16:19:22.961Z,8.35
2017-09-22T16:21:50.161Z,7.87
2017-09-22T16:24:16.625Z,5.70
2017-09-22T16:26:43.073Z,5.45
2017-09-22T16:29:09.546Z,4.20
2017-09-22T16:31:36.734Z,4.65
2017-09-22T16:34:03.282Z,3.47
2017-09-22T16:36:29.793Z,3.50
2017-09-22T16:38:56.219Z,3.65
2017-09-22T16:41:23.486Z,3.75
2017-09-22T16:43:49.920Z,3.45
2017-09-22T16:46:16.382Z,3.70
2017-09-22T16:48:42.815Z,4.18
2017-09-22T16:51:09.278Z,3.60
2017-09-22T16:53:35.749Z,3.90
2017-09-22T16:56:02.214Z,4.68
2017-09-22T16:58:28.660Z,4.95
2017-09-22T17:00:55.072Z,5.35
2017-09-22T17:03:21.511Z,4.43
2017-09-22T17:05:48.010Z,4.12
2017-09-22T17:08:14.499Z,4.50
2017-09-22T17:10:40.941Z,4.18
2017-09-22T17:13:08.294Z,5.80
2017-09-22T17:15:34.738Z,7.32
2017-09-22T17:18:01.196Z,9.50
2017-09-22T17:20:27.676Z,11.80
2017-09-22T17:22:54.150Z,10.02
2017-09-22T17:25:21.330Z,7.05
2017-09-22T17:27:47.790Z,9.85
2017-09-22T17:30:14.248Z,5.68
2017-09-22T17:32:40.776Z,8.60
2017-09-22T17:35:07.246Z,7.55
2017-09-22T17:37:34.401Z,6.32
2017-09-22T17:40:00.818Z,4.75
2017-09-22T17:42:27.319Z,4.40
2017-09-22T17:44:53.746Z,5.65
2017-09-22T17:47:20.205Z,4.20
2017-09-22T17:49:47.415Z,7.85
2017-09-22T17:52:13.860Z,7.03
2017-09-22T17:54:40.285Z,5.40
2017-09-22T17:57:06.729Z,5.97
2017-09-22T17:59:33.161Z,8.60
2017-09-22T18:01:59.642Z,7.05
2017-09-22T18:04:26.082Z,6.53
2017-09-22T18:06:53.268Z,6.75
2017-09-22T18:09:19.756Z,7.95
2017-09-22T18:11:46.238Z,6.55
2017-09-22T18:14:12.763Z,8.18
2017-09-22T18:16:39.286Z,6.95
2017-09-22T18:19:05.741Z,6.87
2017-09-22T18:21:32.265Z,5.45
2017-09-22T18:23:58.808Z,5.70
2017-09-22T18:26:25.237Z,8.60
2017-09-22T18:28:51.661Z,6.05
2017-09-22T18:31:18.158Z,6.93
2017-09-22T18:33:45.342Z,6.80
2017-09-22T18:36:11.813Z,6.80
2017-09-22T18:38:39.046Z,5.97
2017-09-22T18:41:05.496Z,6.70
2017-09-22T18:43:31.913Z,6.07
2017-09-22T18:45:58.421Z,8.20
2017-09-22T18:48:24.925Z,6.95
2017-09-22T18:50:51.394Z,7.30
2017-09-22T18:53:17.882Z,7.20
2017-09-22T18:55:45.066Z,8.65
2017-09-22T18:58:11.498Z,5.60
2017-09-22T19:00:38.020Z,5.70
2017-09-22T19:03:04.506Z,5.80
2017-09-22T19:05:30.984Z,5.65
2017-09-22T19:07:57.416Z,6.25
2017-09-22T19:10:24.637Z,5.40
2017-09-22T19:12:51.858Z,6.50
2017-09-22T19:15:18.382Z,6.05
2017-09-22T19:17:44.817Z,11.23
2017-09-22T19:20:11.372Z,5.72
2017-09-22T19:22:37.874Z,6.12
2017-09-22T19:25:04.372Z,7.05
2017-09-22T19:27:31.551Z,6.97
2017-09-22T19:29:58.034Z,7.65
2017-09-22T19:32:24.469Z,7.30
2017-09-22T19:34:50.963Z,5.97
2017-09-22T19:37:17.446Z,6.62
2017-09-22T19:39:43.887Z,6.82
2017-09-22T19:42:11.117Z,6.90
2017-09-22T19:44:38.351Z,6.30
2017-09-22T19:47:05.536Z,7.22
2017-09-22T19:49:32.000Z,7.60
2017-09-22T19:51:58.428Z,13.95
2017-09-22T19:54:24.899Z,17.42
2017-09-22T19:56:51.421Z,16.02
2017-09-22T19:59:17.857Z,12.20
2017-09-22T20:01:44.405Z,16.25
2017-09-22T20:04:10.877Z,12.82
2017-09-22T20:06:37.426Z,15.32
2017-09-22T20:09:03.907Z,12.80
2017-09-22T20:11:30.366Z,10.90
2017-09-22T20:13:56.854Z,12.93
2017-09-22T20:16:23.322Z,9.60
2017-09-22T20:18:50.592Z,10.35
2017-09-22T20:21:17.901Z,9.00
2017-09-22T20:23:44.394Z,9.43
2017-09-22T20:26:11.638Z,9.45
2017-09-22T20:28:38.865Z,7.22
2017-09-22T20:31:06.027Z,8.45
2017-09-22T20:33:32.515Z,7.70
2017-09-22T20:35:58.982Z,7.43
2017-09-22T20:38:25.464Z,7.40
2017-09-22T20:40:51.897Z,7.47
2017-09-22T20:43:18.321Z,6.87
2017-09-22T20:45:44.772Z,8.27
2017-09-22T20:48:11.237Z,7.57
2017-09-22T20:50:38.398Z,7.50
2017-09-22T20:53:04.842Z,7.60
2017-09-22T20:55:31.290Z,7.20
2017-09-22T20:57:58.534Z,7.20
2017-09-22T21:00:25.037Z,7.40
2017-09-22T21:02:52.241Z,6.85
2017-09-22T21:05:18.729Z,7.85
2017-09-22T21:07:45.181Z,7.37
2017-09-22T21:10:11.630Z,7.75
2017-09-22T21:12:38.816Z,11.00
2017-09-22T21:15:05.265Z,8.50
2017-09-22T21:17:31.738Z,7.28
2017-09-22T21:19:58.978Z,8.02
2017-09-22T21:22:25.417Z,7.45
2017-09-22T21:24:51.874Z,7.55
2017-09-22T21:27:18.313Z,8.93
2017-09-22T21:29:45.483Z,7.65
2017-09-22T21:32:11.978Z,6.75
2017-09-22T21:34:38.498Z,6.85
2017-09-22T21:37:05.013Z,7.43
2017-09-22T21:39:31.462Z,7.68
2017-09-22T21:41:57.901Z,6.65
2017-09-22T21:44:24.353Z,6.50
2017-09-22T21:46:51.510Z,7.20
2017-09-22T21:49:18.665Z,7.05
2017-09-22T21:51:45.182Z,8.57
2017-09-22T21:54:11.618Z,7.55
2017-09-22T21:56:38.840Z,7.62
2017-09-22T21:59:05.333Z,6.95
2017-09-22T22:01:31.805Z,7.18
2017-09-22T22:04:04.441Z,7.82
2017-09-22T22:06:37.132Z,7.40
2017-09-22T22:09:03.788Z,7.10
2017-09-22T22:11:30.261Z,7.72
2017-09-22T22:13:56.762Z,8.48
2017-09-22T22:16:23.272Z,6.45
2017-09-22T22:18:49.789Z,6.90
2017-09-22T22:21:16.301Z,7.22
2017-09-22T22:23:42.809Z,7.50
2017-09-22T22:26:09.308Z,7.95
2017-09-22T22:28:35.774Z,8.63
2017-09-22T22:31:03.063Z,8.60
2017-09-22T22:33:29.541Z,7.97
2017-09-22T22:35:56.063Z,7.43
2017-09-22T22:38:22.584Z,8.00
2017-09-22T22:40:49.120Z,10.13
2017-09-22T22:43:15.677Z,7.30
2017-09-22T22:45:42.138Z,7.80
2017-09-22T22:48:08.602Z,7.50
2017-09-22T22:50:35.149Z,7.22
2017-09-22T22:53:01.616Z,7.78
2017-09-22T22:55:28.131Z,7.05
2017-09-22T22:57:54.655Z,7.30
2017-09-22T23:00:21.186Z,7.68
2017-09-22T23:02:47.712Z,7.05
2017-09-22T23:05:14.226Z,7.03
2017-09-22T23:07:41.445Z,6.78
2017-09-22T23:10:08.666Z,7.28
2017-09-22T23:12:35.165Z,7.22
2017-09-22T23:15:01.664Z,7.85
2017-09-22T23:17:28.137Z,7.10
2017-09-22T23:19:54.675Z,7.50
2017-09-22T23:22:21.865Z,7.70
2017-09-22T23:24:48.396Z,7.82
2017-09-22T23:27:14.985Z,7.28
2017-09-22T23:29:41.532Z,9.25
2017-09-22T23:32:08.043Z,6.95
2017-09-22T23:34:34.497Z,7.97
2017-09-22T23:37:01.744Z,9.80
2017-09-22T23:39:28.957Z,10.43
2017-09-22T23:41:55.419Z,8.68
2017-09-22T23:44:22.661Z,7.55
2017-09-22T23:46:49.225Z,7.35
2017-09-22T23:49:16.433Z,8.50
2017-09-22T23:51:42.890Z,8.07
2017-09-22T23:54:10.141Z,7.95
2017-09-22T23:56:36.604Z,7.40
2017-09-22T23:59:03.052Z,9.43
